Time;durP1;ratioP1;P1;durP2;ratioP2;P2;SDS_P1;SDS_P2;PMS_P1;PMS_P2;Temp;Humidity;BMP_temperature;BMP_pressure;BME280_temperature;BME280_humidity;BME280_pressure;Samples;Min_cycle;Max_cycle;Signal;HPM_P1;HPM_P2
2023/12/14 00:01:14;;;;;;;1.55;0.40;;;7.80;91.10;;;;;;4954307;28;20445;-64
2023/12/14 00:03:46;;;;;;;0.30;0.30;;;7.80;91.10;;;;;;4955769;28;20039;-64
2023/12/14 00:06:12;;;;;;;0.63;0.30;;;7.80;91.20;;;;;;4951624;28;20122;-64
2023/12/14 00:08:38;;;;;;;0.30;0.30;;;7.80;91.60;;;;;;4953894;28;20035;-64
2023/12/14 00:11:13;;;;;;;1.25;0.57;;;7.80;91.30;;;;;;4946135;28;20640;-64
2023/12/14 00:13:39;;;;;;;1.67;0.77;;;7.80;91.30;;;;;;4952641;28;20340;-64
2023/12/14 00:16:05;;;;;;;1.35;1.00;;;7.80;91.30;;;;;;4954060;28;20063;-64
2023/12/14 00:18:31;;;;;;;1.52;0.80;;;7.80;91.30;;;;;;4961733;28;20085;-64
2023/12/14 00:20:56;;;;;;;1.88;0.80;;;7.80;91.30;;;;;;4966141;28;20461;-65
2023/12/14 00:23:23;;;;;;;0.70;0.60;;;7.90;91.40;;;;;;4963356;28;20048;-65
2023/12/14 00:25:49;;;;;;;0.70;0.65;;;7.90;91.40;;;;;;4962128;28;20089;-64
2023/12/14 00:28:14;;;;;;;1.05;0.50;;;7.90;91.40;;;;;;4968917;28;20035;-65
2023/12/14 00:30:40;;;;;;;3.08;0.60;;;7.90;91.40;;;;;;4957660;28;20039;-64
2023/12/14 00:33:06;;;;;;;0.57;0.40;;;7.90;91.40;;;;;;4958360;28;20051;-64
2023/12/14 00:35:31;;;;;;;0.68;0.43;;;7.90;91.40;;;;;;4970990;28;20030;-64
2023/12/14 00:37:57;;;;;;;0.77;0.50;;;7.90;91.40;;;;;;4964737;28;20439;-64
2023/12/14 00:40:22;;;;;;;0.70;0.43;;;7.90;91.40;;;;;;4967160;28;20034;-64
2023/12/14 00:42:48;;;;;;;1.48;0.40;;;7.90;91.40;;;;;;4968124;28;20077;-64
2023/12/14 00:45:14;;;;;;;0.47;0.40;;;7.90;91.40;;;;;;4954925;28;20042;-64
2023/12/14 00:47:39;;;;;;;0.90;0.40;;;8.00;91.40;;;;;;4965924;28;20069;-64
2023/12/14 00:50:05;;;;;;;1.10;0.40;;;8.00;91.40;;;;;;4973780;28;20038;-64
2023/12/14 00:52:31;;;;;;;0.30;0.30;;;7.90;91.40;;;;;;4960588;28;20094;-65
2023/12/14 00:54:56;;;;;;;0.73;0.60;;;7.90;91.40;;;;;;4975128;28;20497;-64
2023/12/14 00:57:22;;;;;;;0.50;0.50;;;8.00;91.40;;;;;;4960476;28;20042;-64
2023/12/14 00:59:48;;;;;;;0.80;0.40;;;8.00;91.40;;;;;;4965614;28;20445;-64
2023/12/14 01:02:13;;;;;;;0.57;0.40;;;8.00;91.40;;;;;;4963136;28;20533;-64
2023/12/14 01:04:39;;;;;;;0.85;0.47;;;8.00;91.30;;;;;;4961909;28;20025;-65
2023/12/14 01:07:05;;;;;;;0.63;0.50;;;8.00;91.30;;;;;;4967336;28;20038;-64
2023/12/14 01:09:30;;;;;;;0.63;0.50;;;8.10;91.30;;;;;;4966534;28;20427;-64
2023/12/14 01:11:56;;;;;;;0.70;0.50;;;8.10;91.20;;;;;;4967074;28;20747;-65
2023/12/14 01:14:22;;;;;;;0.88;0.45;;;8.10;91.20;;;;;;4969848;28;20031;-65
2023/12/14 01:16:47;;;;;;;0.63;0.50;;;8.20;91.20;;;;;;4958462;28;20384;-64
2023/12/14 01:19:13;;;;;;;3.45;0.45;;;8.20;91.10;;;;;;4957516;28;20035;-64
2023/12/14 01:21:38;;;;;;;0.85;0.40;;;8.20;91.10;;;;;;4962418;28;20094;-64
2023/12/14 01:24:04;;;;;;;2.05;0.50;;;8.20;91.00;;;;;;4968453;28;20528;-64
2023/12/14 01:26:30;;;;;;;0.30;0.30;;;8.20;91.00;;;;;;4963382;28;20105;-64
2023/12/14 01:28:55;;;;;;;1.05;0.55;;;8.20;91.00;;;;;;4958740;28;20085;-64
2023/12/14 01:31:23;;;;;;;0.57;0.50;;;8.20;91.00;;;;;;4942500;28;20755;-64
2023/12/14 01:33:49;;;;;;;1.20;0.50;;;8.20;91.00;;;;;;4960482;28;20091;-64
2023/12/14 01:36:26;;;;;;;1.30;0.50;;;8.20;90.90;;;;;;4966642;28;20030;-64
2023/12/14 01:38:51;;;;;;;1.08;0.40;;;8.20;90.90;;;;;;4959144;28;20054;-64
2023/12/14 01:41:17;;;;;;;0.90;0.50;;;8.20;90.90;;;;;;4958678;28;20512;-64
2023/12/14 01:43:43;;;;;;;1.65;0.50;;;8.10;90.90;;;;;;4961579;28;20035;-64
2023/12/14 01:46:09;;;;;;;0.75;0.70;;;8.20;90.90;;;;;;4972224;28;20035;-64
2023/12/14 01:48:35;;;;;;;0.68;0.65;;;8.10;90.80;;;;;;4960786;28;20046;-64
2023/12/14 01:51:01;;;;;;;0.60;0.43;;;8.10;90.90;;;;;;4959855;28;20063;-64
2023/12/14 01:53:26;;;;;;;1.58;0.52;;;8.10;90.90;;;;;;4958562;28;20512;-64
2023/12/14 01:55:52;;;;;;;0.80;0.40;;;8.10;90.90;;;;;;4968097;28;20035;-64
2023/12/14 01:58:18;;;;;;;2.25;0.70;;;8.10;90.90;;;;;;4967020;28;20241;-64
2023/12/14 02:01:18;;;;;;;1.42;0.75;;;8.10;90.80;;;;;;4964899;28;20035;-64
2023/12/14 02:03:45;;;;;;;0.63;0.55;;;8.10;90.80;;;;;;4935085;28;20336;-64
2023/12/14 02:06:10;;;;;;;0.50;0.50;;;8.00;90.80;;;;;;4955605;28;20278;-63
2023/12/14 02:08:36;;;;;;;1.58;0.68;;;8.10;90.80;;;;;;4961979;28;20043;-64
2023/12/14 02:11:02;;;;;;;1.08;0.75;;;8.00;90.80;;;;;;4969597;28;20122;-63
2023/12/14 02:13:27;;;;;;;0.73;0.70;;;8.00;90.90;;;;;;4963472;28;20062;-64
2023/12/14 02:15:53;;;;;;;2.22;0.85;;;8.00;90.90;;;;;;4959097;28;20049;-64
2023/12/14 02:18:19;;;;;;;1.00;0.70;;;8.00;91.00;;;;;;4960551;28;20026;-64
2023/12/14 02:20:45;;;;;;;0.95;0.80;;;8.00;91.00;;;;;;4953583;28;20456;-64
2023/12/14 02:23:10;;;;;;;1.50;0.90;;;8.00;91.00;;;;;;4963911;28;20043;-64
2023/12/14 02:25:38;;;;;;;1.73;0.90;;;8.00;91.00;;;;;;4966307;28;20147;-64
2023/12/14 02:28:03;;;;;;;1.83;0.80;;;8.10;91.10;;;;;;4951122;28;20151;-64
2023/12/14 02:30:29;;;;;;;1.10;0.90;;;8.10;91.00;;;;;;4962002;28;20066;-63
2023/12/14 02:32:55;;;;;;;1.10;1.00;;;8.10;90.90;;;;;;4956516;28;20051;-63
2023/12/14 02:35:20;;;;;;;1.00;0.90;;;8.10;90.80;;;;;;4966845;28;20066;-63
2023/12/14 02:37:46;;;;;;;1.00;0.90;;;8.10;90.80;;;;;;4963406;28;20141;-63
2023/12/14 02:40:12;;;;;;;1.90;1.10;;;8.10;90.80;;;;;;4963698;28;20138;-64
2023/12/14 02:42:38;;;;;;;1.50;1.40;;;8.10;90.80;;;;;;4959395;28;20457;-63
2023/12/14 02:45:04;;;;;;;4.18;1.65;;;8.10;90.80;;;;;;4968940;28;20030;-64
2023/12/14 02:47:30;;;;;;;2.70;1.10;;;8.10;90.80;;;;;;4960846;28;20317;-64
2023/12/14 02:49:55;;;;;;;1.90;1.20;;;8.10;90.80;;;;;;4970206;28;20082;-64
2023/12/14 02:52:21;;;;;;;2.20;0.90;;;8.10;90.80;;;;;;4976031;28;20034;-63
2023/12/14 02:54:47;;;;;;;1.10;1.00;;;8.10;90.80;;;;;;4970620;28;20157;-63
2023/12/14 02:57:12;;;;;;;2.38;1.23;;;8.10;90.80;;;;;;4961899;28;20109;-64
2023/12/14 02:59:39;;;;;;;1.90;1.48;;;8.10;90.80;;;;;;4971142;28;20127;-64
2023/12/14 03:02:04;;;;;;;1.95;1.83;;;8.10;90.90;;;;;;4962051;28;20034;-64
2023/12/14 03:04:30;;;;;;;2.20;2.00;;;8.10;90.90;;;;;;4963977;28;21012;-64
2023/12/14 03:06:56;;;;;;;2.67;2.38;;;8.00;90.90;;;;;;4969668;28;20106;-63
2023/12/14 03:09:22;;;;;;;3.53;3.20;;;8.10;91.00;;;;;;4970130;28;20037;-64
2023/12/14 03:11:48;;;;;;;3.42;3.13;;;8.00;91.00;;;;;;4966030;28;20042;-63
2023/12/14 03:14:14;;;;;;;3.60;3.30;;;8.00;91.00;;;;;;4966359;28;20090;-64
2023/12/14 03:16:39;;;;;;;4.90;3.50;;;8.10;91.00;;;;;;4962133;28;20035;-64
2023/12/14 03:19:05;;;;;;;6.30;4.28;;;8.10;91.00;;;;;;4958065;28;20044;-64
2023/12/14 03:21:31;;;;;;;6.88;4.70;;;8.10;91.00;;;;;;4958997;28;20039;-64
2023/12/14 03:23:56;;;;;;;5.85;4.32;;;8.10;91.00;;;;;;4957811;28;20305;-64
2023/12/14 03:26:22;;;;;;;5.82;4.47;;;8.10;91.00;;;;;;4963144;28;20502;-63
2023/12/14 03:28:47;;;;;;;5.80;4.85;;;8.10;91.00;;;;;;4947793;28;20027;-64
2023/12/14 03:31:13;;;;;;;6.25;5.25;;;8.10;91.00;;;;;;4958417;28;20031;-64
2023/12/14 03:33:40;;;;;;;6.57;5.45;;;8.10;91.00;;;;;;4954803;28;20416;-64
2023/12/14 03:36:06;;;;;;;8.13;5.78;;;8.10;91.00;;;;;;4955414;28;20099;-64
2023/12/14 03:38:33;;;;;;;7.68;5.60;;;8.20;91.00;;;;;;4948986;28;20110;-64
2023/12/14 03:40:58;;;;;;;9.15;5.63;;;8.20;91.00;;;;;;4954371;28;20035;-64
2023/12/14 03:43:24;;;;;;;8.10;6.13;;;8.20;91.40;;;;;;4952500;28;20325;-64
2023/12/14 03:45:50;;;;;;;9.75;6.78;;;8.20;91.00;;;;;;4948998;28;20110;-64
2023/12/14 03:48:15;;;;;;;10.45;7.30;;;8.20;91.20;;;;;;4951221;28;20130;-64
2023/12/14 03:50:41;;;;;;;9.55;7.18;;;8.20;90.90;;;;;;4948548;28;20086;-64
2023/12/14 03:53:07;;;;;;;9.05;6.97;;;8.20;90.90;;;;;;4958154;28;20396;-64
2023/12/14 03:55:33;;;;;;;8.73;7.28;;;8.20;90.90;;;;;;4956059;28;20039;-63
2023/12/14 03:57:58;;;;;;;8.65;6.95;;;8.20;90.90;;;;;;4958866;28;20031;-64
2023/12/14 04:00:24;;;;;;;9.30;7.07;;;8.20;90.90;;;;;;4956475;28;20039;-64
2023/12/14 04:02:50;;;;;;;10.10;7.32;;;8.10;90.90;;;;;;4956217;28;20118;-64
2023/12/14 04:05:15;;;;;;;8.75;6.95;;;8.10;90.90;;;;;;4963895;28;20030;-63
2023/12/14 04:07:41;;;;;;;8.55;6.85;;;8.10;90.90;;;;;;4963715;28;20038;-63
2023/12/14 04:10:08;;;;;;;8.48;6.57;;;8.10;90.90;;;;;;4960252;28;20047;-64
2023/12/14 04:12:35;;;;;;;10.65;7.10;;;8.10;91.00;;;;;;4968655;28;20458;-63
2023/12/14 04:15:00;;;;;;;9.77;7.30;;;8.10;91.00;;;;;;4969294;28;20097;-64
2023/12/14 04:17:26;;;;;;;11.10;7.32;;;8.10;91.00;;;;;;4967039;28;20030;-64
2023/12/14 04:19:54;;;;;;;11.60;7.78;;;8.10;91.00;;;;;;4963450;28;20570;-64
2023/12/14 04:22:19;;;;;;;10.30;7.93;;;8.10;91.00;;;;;;4955188;28;20047;-64
2023/12/14 04:24:45;;;;;;;9.45;7.47;;;8.10;91.00;;;;;;4969051;28;20034;-64
2023/12/14 04:27:10;;;;;;;8.82;7.18;;;8.10;91.00;;;;;;4966942;28;20513;-64
2023/12/14 04:29:36;;;;;;;9.40;7.63;;;8.10;91.00;;;;;;4970599;28;20469;-64
2023/12/14 04:32:02;;;;;;;11.15;8.15;;;8.10;90.90;;;;;;4966871;28;20043;-64
2023/12/14 04:34:27;;;;;;;9.95;7.47;;;8.10;90.90;;;;;;4954897;28;20513;-64
2023/12/14 04:36:57;;;;;;;10.77;7.40;;;8.10;91.00;;;;;;4959238;28;20122;-64
2023/12/14 04:39:24;;;;;;;10.18;7.32;;;8.10;91.00;;;;;;4952538;28;20090;-64
2023/12/14 04:41:50;;;;;;;8.57;7.10;;;8.00;91.00;;;;;;4952222;28;20122;-63
2023/12/14 04:44:16;;;;;;;9.82;7.25;;;8.00;91.00;;;;;;4952599;28;20472;-64
2023/12/14 04:46:42;;;;;;;9.38;6.85;;;8.00;91.00;;;;;;4952314;28;20130;-64
2023/12/14 04:49:07;;;;;;;8.98;7.30;;;8.00;91.10;;;;;;4957670;28;20035;-64
2023/12/14 04:51:33;;;;;;;8.95;6.88;;;8.00;91.00;;;;;;4956054;28;20045;-63
2023/12/14 04:53:59;;;;;;;8.85;6.90;;;8.10;91.10;;;;;;4961971;28;20454;-64
2023/12/14 04:56:24;;;;;;;8.20;6.95;;;8.10;91.10;;;;;;4969541;28;20110;-63
2023/12/14 04:58:50;;;;;;;9.05;6.78;;;8.10;91.10;;;;;;4961368;28;20071;-64
2023/12/14 05:01:15;;;;;;;8.23;6.25;;;8.00;91.00;;;;;;4963509;28;20055;-64
2023/12/14 05:03:41;;;;;;;8.13;6.43;;;8.10;91.10;;;;;;4965375;28;20042;-64
2023/12/14 05:06:07;;;;;;;8.10;6.43;;;8.10;91.10;;;;;;4957009;28;20039;-64
2023/12/14 05:08:32;;;;;;;6.88;5.75;;;8.10;91.00;;;;;;4948321;28;20070;-63
2023/12/14 05:10:58;;;;;;;7.38;5.78;;;8.10;91.00;;;;;;4955346;28;20113;-64
2023/12/14 05:13:24;;;;;;;9.02;6.20;;;8.10;91.00;;;;;;4956103;28;20070;-64
2023/12/14 05:15:51;;;;;;;7.25;5.38;;;8.10;91.00;;;;;;4965114;28;20125;-64
2023/12/14 05:18:17;;;;;;;6.57;5.45;;;8.10;90.90;;;;;;4958523;28;20705;-64
2023/12/14 05:20:45;;;;;;;7.00;5.63;;;8.10;91.00;;;;;;4958273;28;20042;-64
2023/12/14 05:23:10;;;;;;;6.00;5.00;;;8.10;91.00;;;;;;4964566;28;20053;-64
2023/12/14 05:25:36;;;;;;;6.00;5.15;;;8.10;91.00;;;;;;4969746;28;20034;-64
2023/12/14 05:28:01;;;;;;;7.50;5.63;;;8.10;91.00;;;;;;4967403;28;20192;-64
2023/12/14 05:30:27;;;;;;;6.50;5.13;;;8.10;90.90;;;;;;4962704;28;20043;-64
2023/12/14 05:32:52;;;;;;;5.80;5.20;;;8.10;90.90;;;;;;4959260;28;20039;-64
2023/12/14 05:35:18;;;;;;;5.75;5.15;;;8.10;90.90;;;;;;4962560;28;20293;-64
2023/12/14 05:37:43;;;;;;;5.38;4.65;;;8.10;90.80;;;;;;4958686;28;20039;-64
2023/12/14 05:40:10;;;;;;;7.55;4.63;;;8.10;90.80;;;;;;4962683;28;20206;-63
2023/12/14 05:42:35;;;;;;;5.15;4.65;;;8.10;90.80;;;;;;4954031;28;20039;-64
2023/12/14 05:45:01;;;;;;;5.40;4.43;;;8.10;90.80;;;;;;4948001;28;20035;-64
2023/12/14 05:47:27;;;;;;;7.55;4.53;;;8.10;90.80;;;;;;4967471;28;20118;-63
2023/12/14 05:49:52;;;;;;;4.72;4.18;;;8.10;90.80;;;;;;4959325;28;20122;-64
2023/12/14 05:52:18;;;;;;;4.63;4.13;;;8.10;90.80;;;;;;4959172;28;20086;-64
2023/12/14 05:54:44;;;;;;;5.85;4.70;;;8.10;90.80;;;;;;4948470;28;20031;-64
2023/12/14 05:57:12;;;;;;;5.28;4.60;;;8.10;90.80;;;;;;4957945;28;20139;-64
2023/12/14 05:59:38;;;;;;;4.78;4.28;;;8.10;90.80;;;;;;4966469;28;20039;-64
2023/12/14 06:02:04;;;;;;;6.35;4.88;;;8.10;91.20;;;;;;4942045;28;20559;-64
2023/12/14 06:04:30;;;;;;;7.30;4.63;;;8.10;90.80;;;;;;4959967;28;20062;-64
2023/12/14 06:06:56;;;;;;;6.05;5.05;;;8.10;90.80;;;;;;4964443;28;20113;-64
2023/12/14 06:09:26;;;;;;;5.88;4.90;;;8.00;90.80;;;;;;4971739;28;20118;-64
2023/12/14 06:11:52;;;;;;;5.75;5.15;;;8.10;90.80;;;;;;4959614;28;20035;-64
2023/12/14 06:14:17;;;;;;;7.25;5.55;;;8.10;90.80;;;;;;4962256;28;20146;-64
2023/12/14 06:16:43;;;;;;;5.75;5.13;;;8.10;90.80;;;;;;4960001;28;20034;-64
2023/12/14 06:19:09;;;;;;;7.28;5.80;;;8.10;90.80;;;;;;4964631;28;20046;-64
2023/12/14 06:21:34;;;;;;;6.57;5.32;;;8.10;90.80;;;;;;4955447;28;20583;-64
2023/12/14 06:24:00;;;;;;;7.57;5.95;;;8.10;90.90;;;;;;4965633;28;20035;-64
2023/12/14 06:26:26;;;;;;;8.25;6.40;;;8.10;90.90;;;;;;4965905;28;20096;-64
2023/12/14 06:28:51;;;;;;;8.10;6.03;;;8.10;90.80;;;;;;4958027;28;20086;-64
2023/12/14 06:31:18;;;;;;;7.18;5.97;;;8.10;90.90;;;;;;4964490;28;20043;-64
2023/12/14 06:33:44;;;;;;;7.03;5.85;;;8.10;90.90;;;;;;4960511;28;20031;-63
2023/12/14 06:36:10;;;;;;;7.38;6.22;;;8.10;90.90;;;;;;4957441;28;20256;-64
2023/12/14 06:38:39;;;;;;;8.70;6.60;;;8.10;90.90;;;;;;4959718;28;20045;-64
2023/12/14 06:41:05;;;;;;;7.43;6.15;;;8.10;90.90;;;;;;4944342;28;20042;-64
2023/12/14 06:43:33;;;;;;;9.48;6.85;;;8.10;90.90;;;;;;4960697;28;20121;-62
2023/12/14 06:45:59;;;;;;;7.82;6.57;;;8.10;91.00;;;;;;4954557;28;20067;-64
2023/12/14 06:48:27;;;;;;;10.73;6.80;;;8.10;91.00;;;;;;4952668;28;20063;-65
2023/12/14 06:50:54;;;;;;;8.73;6.85;;;8.10;91.00;;;;;;4964595;28;20052;-63
2023/12/14 06:53:20;;;;;;;8.50;6.88;;;8.10;91.00;;;;;;4963893;28;20035;-64
2023/12/14 06:55:45;;;;;;;7.90;6.43;;;8.10;91.00;;;;;;4960601;28;20045;-64
2023/12/14 06:58:11;;;;;;;8.15;6.78;;;8.20;91.00;;;;;;4957276;28;20494;-64
2023/12/14 07:00:40;;;;;;;7.63;6.35;;;8.20;91.00;;;;;;4962231;28;20102;-64
2023/12/14 07:03:05;;;;;;;8.68;6.43;;;8.20;91.00;;;;;;4962618;28;20043;-64
2023/12/14 07:05:32;;;;;;;8.63;6.30;;;8.20;91.00;;;;;;4958039;28;20474;-64
2023/12/14 07:07:58;;;;;;;8.27;5.95;;;8.20;91.00;;;;;;4971663;28;20552;-64
2023/12/14 07:10:24;;;;;;;7.60;6.10;;;8.20;91.00;;;;;;4952932;28;20035;-64
2023/12/14 07:12:53;;;;;;;8.88;6.18;;;8.20;91.00;;;;;;4966791;28;20068;-64
2023/12/14 07:15:19;;;;;;;8.25;6.30;;;8.20;91.00;;;;;;4959948;28;20031;-64
2023/12/14 07:17:44;;;;;;;6.95;5.82;;;8.20;91.00;;;;;;4958157;28;20061;-64
2023/12/14 07:20:11;;;;;;;8.43;6.22;;;8.20;91.00;;;;;;4958031;28;20039;-64
2023/12/14 07:22:36;;;;;;;8.98;6.38;;;8.20;91.00;;;;;;4963194;28;20118;-64
2023/12/14 07:25:03;;;;;;;10.77;6.25;;;8.20;91.10;;;;;;4965233;28;20117;-64
2023/12/14 07:27:29;;;;;;;8.32;5.90;;;8.20;91.10;;;;;;4962445;28;20031;-64
2023/12/14 07:29:54;;;;;;;8.95;6.28;;;8.20;91.10;;;;;;4975969;28;20104;-64
2023/12/14 07:32:21;;;;;;;7.82;6.03;;;8.20;91.10;;;;;;4956129;28;20043;-64
2023/12/14 07:34:46;;;;;;;8.15;6.15;;;8.20;91.10;;;;;;4955429;28;20042;-64
2023/12/14 07:37:12;;;;;;;9.48;6.38;;;8.20;91.10;;;;;;4961045;28;20038;-64
2023/12/14 07:39:38;;;;;;;8.65;6.38;;;8.20;91.20;;;;;;4959185;28;20469;-64
2023/12/14 07:42:05;;;;;;;7.57;6.00;;;8.20;91.20;;;;;;4955875;28;20074;-64
2023/12/14 07:44:30;;;;;;;8.32;5.50;;;8.20;91.20;;;;;;4951935;28;20031;-64
2023/12/14 07:47:00;;;;;;;7.00;5.70;;;8.30;91.20;;;;;;4959501;28;20041;-64
2023/12/14 07:49:26;;;;;;;10.00;6.20;;;8.20;91.20;;;;;;4959981;28;20074;-63
2023/12/14 07:51:51;;;;;;;7.68;5.72;;;8.20;91.20;;;;;;4956385;28;20035;-64
2023/12/14 07:54:18;;;;;;;8.35;6.10;;;8.30;91.20;;;;;;4954142;28;20035;-64
2023/12/14 07:56:44;;;;;;;8.90;6.20;;;8.30;91.20;;;;;;4953025;28;20036;-64
2023/12/14 07:59:10;;;;;;;8.98;6.68;;;8.30;91.20;;;;;;4949466;28;20038;-64
2023/12/14 08:01:36;;;;;;;8.15;6.40;;;8.30;91.20;;;;;;4965741;28;20458;-64
2023/12/14 08:04:02;;;;;;;8.57;6.82;;;8.30;91.20;;;;;;4955911;28;20039;-64
2023/12/14 08:06:28;;;;;;;9.23;7.32;;;8.30;91.20;;;;;;4959316;28;20051;-64
2023/12/14 08:08:54;;;;;;;9.77;7.78;;;8.30;91.20;;;;;;4954261;28;20107;-64
2023/12/14 08:11:20;;;;;;;10.15;7.85;;;8.30;91.20;;;;;;4963108;28;20155;-64
2023/12/14 08:13:47;;;;;;;9.82;7.22;;;8.30;91.20;;;;;;4956424;28;20133;-64
2023/12/14 08:16:13;;;;;;;8.82;7.00;;;8.30;91.30;;;;;;4960143;28;20126;-64
2023/12/14 08:18:38;;;;;;;10.75;7.70;;;8.30;91.30;;;;;;4956434;28;20543;-64
2023/12/14 08:21:04;;;;;;;10.70;7.30;;;8.30;91.30;;;;;;4963473;28;20114;-64
2023/12/14 08:23:30;;;;;;;11.40;7.40;;;8.30;91.30;;;;;;4956101;28;20056;-64
2023/12/14 08:25:58;;;;;;;10.73;7.32;;;8.30;91.40;;;;;;4956620;28;20039;-64
2023/12/14 08:28:25;;;;;;;11.52;7.32;;;8.30;91.40;;;;;;4953105;28;20045;-64
2023/12/14 08:30:51;;;;;;;12.93;7.63;;;8.30;91.40;;;;;;4961159;28;20043;-64
2023/12/14 08:33:16;;;;;;;10.02;6.88;;;8.30;91.40;;;;;;4964469;28;20532;-64
2023/12/14 08:35:42;;;;;;;8.43;6.70;;;8.40;91.40;;;;;;4966216;28;20035;-63
2023/12/14 08:38:08;;;;;;;11.38;7.22;;;8.30;91.40;;;;;;4966192;28;20047;-64
2023/12/14 08:40:33;;;;;;;9.95;6.68;;;8.30;91.40;;;;;;4971787;28;20127;-64
2023/12/14 08:42:59;;;;;;;11.52;6.65;;;8.30;91.40;;;;;;4958509;28;20113;-63
2023/12/14 08:45:25;;;;;;;7.68;6.50;;;8.30;91.50;;;;;;4971906;28;20027;-64
2023/12/14 08:47:50;;;;;;;8.77;6.82;;;8.30;91.50;;;;;;4969438;28;20058;-64
2023/12/14 08:50:16;;;;;;;10.10;6.72;;;8.30;91.50;;;;;;4961147;28;20059;-64
2023/12/14 08:52:41;;;;;;;9.70;7.13;;;8.30;91.50;;;;;;4952177;28;20522;-64
2023/12/14 08:55:13;;;;;;;9.02;7.28;;;8.30;91.50;;;;;;4961192;28;20035;-64
2023/12/14 08:57:39;;;;;;;11.57;7.55;;;8.30;91.50;;;;;;4964459;28;20034;-64
2023/12/14 09:00:07;;;;;;;12.02;6.85;;;8.30;91.90;;;;;;4951637;28;20034;-64
2023/12/14 09:02:33;;;;;;;10.98;7.40;;;8.40;91.50;;;;;;4957231;28;20039;-64
2023/12/14 09:05:02;;;;;;;8.38;6.65;;;8.40;91.50;;;;;;4964346;28;20035;-64
2023/12/14 09:07:27;;;;;;;7.65;6.32;;;8.40;91.50;;;;;;4970911;28;20023;-64
2023/12/14 09:09:53;;;;;;;9.57;6.88;;;8.40;91.50;;;;;;4963465;28;20043;-64
2023/12/14 09:12:19;;;;;;;10.65;7.68;;;8.40;91.50;;;;;;4966024;28;20042;-64
2023/12/14 09:14:45;;;;;;;10.40;7.00;;;8.40;91.40;;;;;;4969656;28;20047;-64
2023/12/14 09:17:10;;;;;;;9.20;6.25;;;8.40;91.40;;;;;;4960895;28;20031;-63
2023/12/14 09:19:36;;;;;;;9.00;6.57;;;8.40;91.70;;;;;;4967143;28;20122;-64
2023/12/14 09:22:01;;;;;;;7.90;6.38;;;8.40;91.30;;;;;;4963806;28;20042;-64
2023/12/14 09:24:30;;;;;;;9.25;6.80;;;8.40;91.30;;;;;;4963885;28;20545;-63
2023/12/14 09:26:55;;;;;;;8.93;6.38;;;8.40;91.40;;;;;;4967020;28;20071;-64
2023/12/14 09:29:21;;;;;;;7.28;6.45;;;8.40;91.40;;;;;;4961738;28;20055;-64
2023/12/14 09:31:47;;;;;;;8.32;6.72;;;8.40;91.40;;;;;;4965033;28;20182;-64
2023/12/14 09:34:13;;;;;;;9.98;6.38;;;8.40;91.40;;;;;;4963434;28;20028;-64
2023/12/14 09:36:41;;;;;;;7.75;6.20;;;8.40;91.40;;;;;;4962707;28;20038;-64
2023/12/14 09:39:10;;;;;;;8.25;7.00;;;8.40;91.40;;;;;;4964811;28;20042;-64
2023/12/14 09:41:38;;;;;;;8.10;6.30;;;8.40;91.40;;;;;;4946722;28;20035;-64
2023/12/14 09:44:05;;;;;;;6.93;6.13;;;8.30;91.40;;;;;;4966643;28;20070;-64
2023/12/14 09:46:32;;;;;;;7.35;6.22;;;8.40;91.50;;;;;;4965805;28;20520;-65
2023/12/14 09:48:59;;;;;;;7.15;6.10;;;8.40;91.50;;;;;;4965783;28;20175;-64
2023/12/14 09:51:26;;;;;;;6.93;5.63;;;8.30;91.50;;;;;;4970628;28;20093;-64
2023/12/14 09:53:57;;;;;;;7.43;5.53;;;8.40;91.60;;;;;;4962308;28;20068;-64
2023/12/14 09:56:26;;;;;;;6.63;5.32;;;8.40;91.60;;;;;;4956966;28;20410;-64
2023/12/14 09:58:56;;;;;;;5.47;4.75;;;8.40;91.60;;;;;;4966559;28;20047;-64
2023/12/14 10:01:27;;;;;;;4.95;4.45;;;8.40;91.50;;;;;;4962149;28;20167;-64
2023/12/14 10:04:07;;;;;;;4.47;3.90;;;8.40;91.60;;;;;;4967759;28;20035;-64
2023/12/14 10:06:33;;;;;;;3.83;3.10;;;8.40;91.50;;;;;;4958657;28;20030;-64
2023/12/14 10:08:59;;;;;;;5.55;3.30;;;8.40;91.50;;;;;;4955629;28;20047;-64
2023/12/14 10:11:24;;;;;;;3.15;2.85;;;8.50;91.50;;;;;;4965375;28;20045;-64
2023/12/14 10:13:50;;;;;;;3.67;3.13;;;8.40;91.40;;;;;;4964495;28;20039;-64
2023/12/14 10:16:32;;;;;;;5.72;3.28;;;8.50;91.40;;;;;;4971650;28;20039;-64
2023/12/14 10:18:59;;;;;;;4.72;3.20;;;8.50;91.40;;;;;;4961731;28;20039;-64
2023/12/14 10:21:26;;;;;;;4.15;2.97;;;8.40;91.40;;;;;;4957057;28;20139;-64
2023/12/14 10:23:55;;;;;;;3.95;3.63;;;8.40;91.40;;;;;;4962390;28;20047;-64
2023/12/14 10:26:23;;;;;;;3.50;3.10;;;8.40;91.40;;;;;;4969767;28;20037;-63
2023/12/14 10:28:50;;;;;;;3.75;3.35;;;8.40;91.40;;;;;;4949832;28;20050;-64
2023/12/14 10:31:16;;;;;;;5.50;4.93;;;8.40;91.50;;;;;;4961212;28;20039;-63
2023/12/14 10:33:41;;;;;;;4.82;3.75;;;8.40;91.50;;;;;;4959369;28;20406;-64
2023/12/14 10:36:08;;;;;;;4.18;3.17;;;8.40;91.60;;;;;;4958751;28;20050;-64
2023/12/14 10:38:37;;;;;;;3.03;2.83;;;8.40;91.70;;;;;;4967347;28;20046;-64
2023/12/14 10:41:04;;;;;;;3.15;2.92;;;8.40;91.70;;;;;;4949523;28;20039;-64
2023/12/14 10:43:29;;;;;;;3.28;2.97;;;8.40;91.70;;;;;;4968730;28;20030;-64
2023/12/14 10:45:56;;;;;;;3.10;2.72;;;8.40;91.70;;;;;;4970891;28;20419;-63
2023/12/14 10:48:21;;;;;;;2.45;2.20;;;8.50;91.80;;;;;;4962652;28;20034;-63
2023/12/14 10:50:50;;;;;;;2.30;2.10;;;8.50;91.80;;;;;;4967544;28;20098;-64
2023/12/14 10:53:16;;;;;;;3.40;2.25;;;8.60;91.70;;;;;;4968776;28;20050;-63
2023/12/14 10:55:44;;;;;;;3.60;2.20;;;8.60;91.80;;;;;;4966976;28;20426;-64
2023/12/14 10:58:11;;;;;;;2.65;2.20;;;8.70;91.90;;;;;;4964847;28;20031;-64
2023/12/14 11:00:38;;;;;;;2.75;2.40;;;8.70;91.80;;;;;;4962194;28;20426;-64
2023/12/14 11:03:05;;;;;;;3.00;2.67;;;8.80;91.90;;;;;;4969482;28;20472;-64
2023/12/14 11:05:33;;;;;;;2.83;2.50;;;8.80;91.90;;;;;;4968836;28;20525;-64
2023/12/14 11:08:09;;;;;;;2.88;2.30;;;8.90;91.90;;;;;;4963040;28;20046;-64
2023/12/14 11:10:55;;;;;;;1.92;1.83;;;8.90;91.80;;;;;;4950621;28;20062;-64
2023/12/14 11:13:21;;;;;;;3.22;2.00;;;9.00;91.70;;;;;;4955963;28;20039;-63
2023/12/14 11:15:54;;;;;;;2.20;2.00;;;9.10;91.60;;;;;;4959434;28;20050;-64
2023/12/14 11:18:24;;;;;;;1.80;1.70;;;9.10;91.40;;;;;;4964930;28;20046;-64
2023/12/14 11:21:01;;;;;;;1.95;1.85;;;9.10;91.30;;;;;;4960919;28;20067;-64
2023/12/14 11:23:33;;;;;;;1.88;1.77;;;9.20;91.20;;;;;;4960353;28;20426;-64
2023/12/14 11:26:04;;;;;;;1.83;1.60;;;9.20;91.20;;;;;;4960107;28;20117;-64
2023/12/14 11:28:35;;;;;;;2.10;1.92;;;9.20;91.10;;;;;;4960100;28;20540;-64
2023/12/14 11:31:02;;;;;;;1.65;1.55;;;9.20;91.20;;;;;;4963750;28;20064;-64
2023/12/14 11:33:28;;;;;;;1.60;1.50;;;9.20;91.10;;;;;;4967565;28;20050;-64
2023/12/14 11:35:55;;;;;;;1.60;1.50;;;9.30;91.00;;;;;;4961511;28;20549;-64
2023/12/14 11:38:23;;;;;;;1.50;1.25;;;9.30;91.00;;;;;;4955291;28;20047;-64
2023/12/14 11:40:49;;;;;;;0.95;0.95;;;9.30;91.20;;;;;;4953092;28;20113;-63
2023/12/14 11:43:15;;;;;;;1.23;0.93;;;9.30;90.80;;;;;;4963627;28;20034;-64
2023/12/14 11:45:41;;;;;;;1.15;1.02;;;9.40;90.60;;;;;;4959891;28;20466;-64
2023/12/14 11:48:10;;;;;;;1.45;1.08;;;9.30;90.40;;;;;;4956524;28;20043;-63
2023/12/14 11:50:39;;;;;;;0.70;0.70;;;9.30;90.50;;;;;;4955350;28;20082;-64
2023/12/14 11:53:05;;;;;;;0.68;0.68;;;9.30;90.40;;;;;;4960340;28;20035;-64
2023/12/14 11:55:33;;;;;;;1.13;0.65;;;9.30;90.40;;;;;;4963508;28;20045;-64
2023/12/14 11:57:59;;;;;;;0.55;0.50;;;9.30;90.40;;;;;;4961568;28;20042;-64
2023/12/14 12:00:29;;;;;;;3.33;1.05;;;9.30;90.30;;;;;;4956773;28;20031;-64
2023/12/14 12:03:14;;;;;;;0.73;0.60;;;9.30;90.00;;;;;;4956129;28;20074;-63
2023/12/14 12:05:51;;;;;;;5.55;1.70;;;9.30;89.70;;;;;;4963110;28;20034;-64
2023/12/14 12:08:19;;;;;;;1.23;0.82;;;9.30;89.90;;;;;;4959168;28;20035;-64
2023/12/14 12:10:46;;;;;;;4.45;1.40;;;9.30;90.00;;;;;;4954060;28;20046;-64
2023/12/14 12:13:20;;;;;;;0.88;0.68;;;9.30;90.10;;;;;;4959054;28;20038;-64
2023/12/14 12:15:46;;;;;;;1.33;0.82;;;9.20;90.10;;;;;;4966910;28;20078;-64
2023/12/14 12:18:14;;;;;;;0.60;0.60;;;9.30;90.40;;;;;;4962566;28;20035;-64
2023/12/14 12:20:40;;;;;;;1.77;0.77;;;9.30;90.40;;;;;;4959307;28;20027;-63
2023/12/14 12:23:06;;;;;;;1.08;0.90;;;9.30;90.30;;;;;;4960344;28;20047;-64
2023/12/14 12:25:33;;;;;;;0.95;0.90;;;9.30;90.20;;;;;;4967662;28;20114;-64
2023/12/14 12:28:00;;;;;;;1.10;0.63;;;9.30;90.20;;;;;;4966342;28;20047;-64
2023/12/14 12:30:26;;;;;;;1.20;0.80;;;9.40;90.30;;;;;;4967920;28;20043;-64
2023/12/14 12:32:51;;;;;;;1.20;1.10;;;9.40;90.40;;;;;;4964294;28;20045;-64
2023/12/14 12:35:20;;;;;;;1.40;1.02;;;9.40;90.40;;;;;;4966018;28;20039;-64
2023/12/14 12:37:46;;;;;;;1.50;1.40;;;9.40;90.30;;;;;;4969565;28;20035;-64
2023/12/14 12:40:12;;;;;;;1.40;1.30;;;9.50;90.40;;;;;;4963456;28;20086;-64
2023/12/14 12:42:38;;;;;;;2.40;1.00;;;9.60;90.40;;;;;;4969102;28;20042;-64
2023/12/14 12:45:05;;;;;;;1.02;0.93;;;9.60;90.40;;;;;;4964093;28;20031;-64
2023/12/14 12:47:31;;;;;;;0.90;0.90;;;9.60;90.30;;;;;;4961841;28;20692;-63
2023/12/14 12:49:56;;;;;;;2.38;1.30;;;9.60;90.30;;;;;;4967805;28;20038;-64
2023/12/14 12:52:22;;;;;;;1.58;0.90;;;9.70;90.30;;;;;;4971846;28;20031;-64